Waltham, Minnesota
Current Conditions -  °F | °C
As of 11:36 PM on Saturday 22 Nov 2014 (Local Time) from KAUM Reporting Station
Haze Haze  
Wind Chill: 43°   Ceiling: 200
Heat Index: 48°   Visibility: 1.5mi
Dew Point: 46°   Wind: 13mph
Humidity: 93%   Direction: 190°S
Pressure: 29.56"   Gusts: NA
Location:  43.82°N, 92.88°W
Report Text: KAUM 230536Z AUTO 19011KT 1 1/2SM BR OVC002 09/08 A2956 RMK AO2
Loading
Personal Weather Stations






























Interactive Weather Map New forecast layout! Learn more

10-Day Weather Forecast

Advertisements
Track Severe Weather on mobile